createdAt,value
2019-03-12T00:00:31.229Z,8.60
2019-03-12T00:01:31.217Z,10.30
2019-03-12T00:02:31.217Z,9.50
2019-03-12T00:03:31.198Z,7.70
2019-03-12T00:04:31.206Z,9.70
2019-03-12T00:05:31.186Z,11.80
2019-03-12T00:06:31.161Z,10.40
2019-03-12T00:07:31.153Z,11.60
2019-03-12T00:08:31.150Z,10.30
2019-03-12T00:09:31.164Z,11.40
2019-03-12T00:10:31.122Z,11.30
2019-03-12T00:11:31.105Z,11.70
2019-03-12T00:12:31.095Z,12.10
2019-03-12T00:13:31.090Z,10.60
2019-03-12T00:14:31.087Z,9.00
2019-03-12T00:15:31.087Z,11.70
2019-03-12T00:16:31.055Z,12.40
2019-03-12T00:17:31.042Z,10.70
2019-03-12T00:18:31.035Z,12.10
2019-03-12T00:19:31.030Z,12.60
2019-03-12T00:20:31.037Z,12.60
2019-03-12T00:21:30.999Z,11.60
2019-03-12T00:22:30.992Z,9.60
2019-03-12T00:23:30.980Z,12.40
2019-03-12T00:24:30.966Z,12.50
2019-03-12T00:25:30.987Z,9.20
2019-03-12T00:26:30.950Z,10.30
2019-03-12T00:27:30.937Z,11.30
2019-03-12T00:28:30.923Z,10.90
2019-03-12T00:29:30.913Z,10.20
2019-03-12T00:30:30.936Z,8.00
2019-03-12T00:31:30.893Z,10.30
2019-03-12T00:32:30.884Z,12.30
2019-03-12T00:33:30.866Z,10.10
2019-03-12T00:34:30.862Z,11.00
2019-03-12T00:35:30.869Z,13.60
2019-03-12T00:36:30.833Z,10.70
2019-03-12T00:37:30.828Z,8.20
2019-03-12T00:38:30.810Z,11.00
2019-03-12T00:39:30.807Z,10.90
2019-03-12T00:40:30.813Z,10.10
2019-03-12T00:41:30.780Z,9.00
2019-03-12T00:42:30.769Z,12.70
2019-03-12T00:43:30.755Z,10.40
2019-03-12T00:44:30.743Z,10.80
2019-03-12T00:45:30.755Z,7.20
2019-03-12T00:46:30.731Z,9.80
2019-03-12T00:47:30.711Z,9.70
2019-03-12T00:48:30.702Z,10.90
2019-03-12T00:49:30.693Z,9.80
2019-03-12T00:50:30.704Z,11.30
2019-03-12T00:51:30.669Z,8.50
2019-03-12T00:52:30.662Z,10.10
2019-03-12T00:53:30.647Z,11.90
2019-03-12T00:54:30.637Z,13.50
2019-03-12T00:55:30.650Z,12.30
2019-03-12T00:56:30.614Z,12.50
2019-03-12T00:57:30.600Z,15.20
2019-03-12T00:58:30.597Z,17.50
2019-03-12T00:59:30.579Z,13.50
2019-03-12T01:00:30.596Z,13.90
2019-03-12T01:01:30.555Z,15.70
2019-03-12T01:02:30.546Z,13.40
2019-03-12T01:03:30.535Z,15.50
2019-03-12T01:04:30.523Z,14.60
2019-03-12T01:05:30.536Z,16.60
2019-03-12T01:06:30.500Z,13.20
2019-03-12T01:07:30.489Z,13.10
2019-03-12T01:08:30.482Z,15.10
2019-03-12T01:09:30.470Z,15.20
2019-03-12T01:10:30.484Z,17.90
2019-03-12T01:11:30.447Z,17.90
2019-03-12T01:12:30.436Z,18.20
2019-03-12T01:13:30.423Z,15.20
2019-03-12T01:14:30.423Z,16.30
2019-03-12T01:15:30.401Z,14.80
2019-03-12T01:16:30.413Z,13.90
2019-03-12T01:17:30.379Z,14.10
2019-03-12T01:18:30.367Z,17.60
2019-03-12T01:19:30.359Z,13.70
2019-03-12T01:20:30.353Z,15.20
2019-03-12T01:21:30.361Z,13.70
2019-03-12T01:22:30.325Z,12.50
2019-03-12T01:23:30.314Z,13.10
2019-03-12T01:24:30.305Z,15.30
2019-03-12T01:25:30.294Z,13.70
2019-03-12T01:26:30.307Z,13.40
2019-03-12T01:27:30.270Z,11.70
2019-03-12T01:28:30.259Z,15.10
2019-03-12T01:29:30.248Z,12.70
2019-03-12T01:30:30.238Z,12.70
2019-03-12T01:31:30.250Z,14.50
2019-03-12T01:32:30.220Z,11.20
2019-03-12T01:33:30.205Z,15.90
2019-03-12T01:34:30.200Z,14.20
2019-03-12T01:35:30.183Z,12.80
2019-03-12T01:36:30.198Z,17.30
2019-03-12T01:37:30.164Z,15.20
2019-03-12T01:38:30.150Z,13.50
2019-03-12T01:39:30.144Z,12.60
2019-03-12T01:40:30.143Z,10.70
2019-03-12T01:41:30.147Z,10.80
2019-03-12T01:42:30.107Z,11.20
2019-03-12T01:43:30.097Z,10.00
2019-03-12T01:44:30.094Z,8.70
2019-03-12T01:45:30.083Z,10.00
2019-03-12T01:46:30.088Z,11.60
2019-03-12T01:47:30.055Z,12.50
2019-03-12T01:48:30.048Z,11.80
2019-03-12T01:49:30.036Z,11.70
2019-03-12T01:50:30.023Z,10.10
2019-03-12T01:51:31.166Z,10.60
2019-03-12T01:52:30.005Z,10.30
2019-03-12T01:53:29.996Z,11.70
2019-03-12T01:54:29.983Z,12.80
2019-03-12T01:55:29.969Z,9.00
2019-03-12T01:56:29.988Z,10.80
2019-03-12T01:57:29.957Z,11.60
2019-03-12T01:58:29.943Z,11.10
2019-03-12T01:59:29.932Z,13.00
2019-03-12T02:00:29.916Z,10.40
2019-03-12T02:01:29.945Z,11.60
2019-03-12T02:02:29.899Z,13.40
2019-03-12T02:03:29.886Z,13.80
2019-03-12T02:04:29.872Z,12.40
2019-03-12T02:05:29.864Z,12.10
2019-03-12T02:06:29.853Z,11.80
2019-03-12T02:07:29.863Z,17.00
2019-03-12T02:08:29.835Z,13.70
2019-03-12T02:09:29.823Z,15.00
2019-03-12T02:10:29.812Z,17.10
2019-03-12T02:11:29.799Z,15.40
2019-03-12T02:12:29.820Z,14.90
2019-03-12T02:13:29.782Z,14.60
2019-03-12T02:14:29.768Z,14.80
2019-03-12T02:15:29.757Z,15.70
2019-03-12T02:16:29.747Z,12.90
2019-03-12T02:17:29.761Z,13.60
2019-03-12T02:18:29.722Z,14.60
2019-03-12T02:19:29.711Z,12.60
2019-03-12T02:20:29.705Z,12.50
2019-03-12T02:21:29.688Z,12.50
2019-03-12T02:22:29.715Z,12.50
2019-03-12T02:23:29.668Z,13.20
2019-03-12T02:24:29.659Z,11.20
2019-03-12T02:25:29.648Z,13.80
2019-03-12T02:26:29.642Z,12.40
2019-03-12T02:27:29.646Z,14.30
2019-03-12T02:28:29.622Z,11.70
2019-03-12T02:29:29.607Z,13.10
2019-03-12T02:30:29.600Z,12.10
2019-03-12T02:31:29.590Z,13.50
2019-03-12T02:32:29.600Z,15.90
2019-03-12T02:33:29.568Z,13.00
2019-03-12T02:34:29.552Z,15.80
2019-03-12T02:35:29.539Z,15.10
2019-03-12T02:36:29.529Z,16.40
2019-03-12T02:37:29.550Z,14.50
2019-03-12T02:38:29.509Z,15.60
2019-03-12T02:39:29.556Z,14.10
2019-03-12T02:40:29.498Z,15.60
2019-03-12T02:41:29.482Z,12.80
2019-03-12T02:42:29.487Z,14.00
2019-03-12T02:43:29.467Z,14.10
2019-03-12T02:44:29.443Z,13.50
2019-03-12T02:45:29.444Z,17.00
2019-03-12T02:46:29.418Z,13.20
2019-03-12T02:47:29.455Z,16.90
2019-03-12T02:48:29.413Z,16.00
2019-03-12T02:49:29.394Z,13.90
2019-03-12T02:50:29.378Z,16.10
2019-03-12T02:51:29.368Z,17.60
2019-03-12T02:52:29.357Z,13.30
2019-03-12T02:53:29.371Z,13.30
2019-03-12T02:54:29.334Z,14.80
2019-03-12T02:55:29.334Z,15.80
2019-03-12T02:56:29.320Z,16.10
2019-03-12T02:57:29.302Z,15.50
2019-03-12T02:58:29.323Z,14.10
2019-03-12T02:59:29.285Z,16.10
2019-03-12T03:00:29.273Z,14.00
2019-03-12T03:01:29.259Z,14.70
2019-03-12T03:02:29.256Z,15.20
2019-03-12T03:03:29.263Z,15.50
2019-03-12T03:04:29.230Z,15.30
2019-03-12T03:05:29.219Z,15.40
2019-03-12T03:06:29.213Z,15.20
2019-03-12T03:07:29.194Z,14.60
2019-03-12T03:08:29.210Z,14.50
2019-03-12T03:09:29.175Z,14.90
2019-03-12T03:10:29.162Z,14.50
2019-03-12T03:11:29.154Z,13.70
2019-03-12T03:12:29.148Z,12.90
2019-03-12T03:13:29.156Z,12.70
2019-03-12T03:14:29.127Z,15.80
2019-03-12T03:15:29.107Z,13.90
2019-03-12T03:16:29.098Z,12.80
2019-03-12T03:17:29.093Z,14.50
2019-03-12T03:18:29.103Z,16.60
2019-03-12T03:19:29.063Z,15.10
2019-03-12T03:20:29.055Z,13.00
2019-03-12T03:21:29.052Z,16.60
2019-03-12T03:22:29.044Z,13.10
2019-03-12T03:23:29.046Z,14.80
2019-03-12T03:24:29.013Z,15.70
2019-03-12T03:25:29.003Z,17.00
2019-03-12T03:26:29.003Z,13.40
2019-03-12T03:27:29.700Z,13.90
2019-03-12T03:28:28.995Z,17.80
2019-03-12T03:29:28.960Z,17.00
2019-03-12T03:30:28.953Z,17.30
2019-03-12T03:31:28.975Z,16.20
2019-03-12T03:32:28.984Z,16.20
2019-03-12T03:33:29.140Z,13.90
2019-03-12T03:34:29.161Z,16.40
2019-03-12T03:35:28.892Z,15.70
2019-03-12T03:36:28.881Z,14.90
2019-03-12T03:37:28.873Z,15.90
2019-03-12T03:38:28.893Z,13.60
2019-03-12T03:39:29.032Z,16.40
2019-03-12T03:40:28.848Z,17.10
2019-03-12T03:41:28.831Z,16.40
2019-03-12T03:42:28.817Z,16.00
2019-03-12T03:43:29.044Z,15.10
2019-03-12T03:44:28.799Z,13.40
2019-03-12T03:45:28.796Z,13.20
2019-03-12T03:46:28.777Z,13.70
2019-03-12T03:47:28.768Z,13.30
2019-03-12T03:48:28.756Z,13.20
2019-03-12T03:49:28.761Z,16.00
2019-03-12T03:50:28.733Z,14.90
2019-03-12T03:51:28.732Z,11.30
2019-03-12T03:52:28.732Z,13.60
2019-03-12T03:53:28.702Z,13.10
2019-03-12T03:54:28.709Z,12.40
2019-03-12T03:55:28.676Z,12.90
2019-03-12T03:56:28.671Z,11.10
2019-03-12T03:57:28.654Z,12.20
2019-03-12T03:58:28.657Z,14.10
2019-03-12T03:59:28.658Z,13.30
2019-03-12T04:00:28.628Z,12.40
2019-03-12T04:01:28.624Z,13.40
2019-03-12T04:02:28.604Z,11.60
2019-03-12T04:03:28.599Z,12.70
2019-03-12T04:04:28.608Z,11.00
2019-03-12T04:05:28.568Z,13.20
2019-03-12T04:06:28.560Z,11.90
2019-03-12T04:07:28.550Z,10.40
2019-03-12T04:08:28.539Z,12.20
2019-03-12T04:09:28.558Z,10.60
2019-03-12T04:10:28.526Z,9.90
2019-03-12T04:11:28.504Z,10.40
2019-03-12T04:12:28.495Z,13.00
2019-03-12T04:13:28.487Z,12.90
2019-03-12T04:14:28.505Z,11.00
2019-03-12T04:15:28.469Z,11.90
2019-03-12T04:16:28.452Z,11.10
2019-03-12T04:17:28.441Z,12.80
2019-03-12T04:18:28.429Z,9.50
2019-03-12T04:19:28.442Z,9.80
2019-03-12T04:20:28.410Z,12.30
2019-03-12T04:21:28.407Z,10.20
2019-03-12T04:22:28.387Z,9.80
2019-03-12T04:23:28.387Z,9.40
2019-03-12T04:24:28.390Z,12.60
2019-03-12T04:25:28.356Z,10.60
2019-03-12T04:26:28.352Z,9.10
2019-03-12T04:27:28.337Z,8.90
2019-03-12T04:28:28.322Z,11.60
2019-03-12T04:29:28.334Z,10.60
2019-03-12T04:30:28.303Z,9.80
2019-03-12T04:31:28.292Z,9.80
2019-03-12T04:32:28.285Z,10.30
2019-03-12T04:33:28.274Z,11.20
2019-03-12T04:34:28.291Z,8.90
2019-03-12T04:35:28.262Z,8.50
2019-03-12T04:36:28.248Z,8.70
2019-03-12T04:37:28.224Z,9.00
2019-03-12T04:38:28.220Z,7.20
2019-03-12T04:39:28.206Z,8.80
2019-03-12T04:40:28.214Z,9.20
2019-03-12T04:41:28.179Z,9.30
2019-03-12T04:42:28.170Z,11.40
2019-03-12T04:43:28.161Z,9.00
2019-03-12T04:44:28.147Z,10.40
2019-03-12T04:45:28.166Z,7.80
2019-03-12T04:46:28.127Z,11.30
2019-03-12T04:47:28.118Z,9.00
2019-03-12T04:48:28.103Z,8.30
2019-03-12T04:49:28.097Z,10.00
2019-03-12T04:50:28.114Z,10.70
2019-03-12T04:51:28.072Z,9.10
2019-03-12T04:52:28.064Z,9.50
2019-03-12T04:53:28.052Z,9.00
2019-03-12T04:54:28.041Z,7.70
2019-03-12T04:55:28.058Z,9.20
2019-03-12T04:56:28.025Z,9.40
2019-03-12T04:57:28.007Z,9.80
2019-03-12T04:58:27.998Z,8.80
2019-03-12T04:59:27.994Z,6.80
2019-03-12T05:00:28.008Z,8.30
2019-03-12T05:01:27.965Z,6.80
2019-03-12T05:02:27.961Z,7.50
2019-03-12T05:03:27.946Z,6.80
2019-03-12T05:04:27.935Z,8.00
2019-03-12T05:05:27.949Z,7.40
2019-03-12T05:06:27.919Z,11.30
2019-03-12T05:07:27.902Z,5.30
2019-03-12T05:08:27.896Z,6.50
2019-03-12T05:09:27.883Z,7.30
2019-03-12T05:10:27.897Z,7.60
2019-03-12T05:11:27.857Z,8.30
2019-03-12T05:12:30.466Z,7.50
2019-03-12T05:13:27.839Z,6.20
2019-03-12T05:14:27.831Z,9.30
2019-03-12T05:15:27.837Z,6.20
2019-03-12T05:16:27.804Z,8.50
2019-03-12T05:17:27.800Z,7.70
2019-03-12T05:18:27.785Z,10.30
2019-03-12T05:19:27.773Z,8.40
2019-03-12T05:20:27.785Z,5.90
2019-03-12T05:21:27.754Z,6.50
2019-03-12T05:22:27.741Z,7.30
2019-03-12T05:23:27.729Z,9.40
2019-03-12T05:24:27.715Z,8.00
2019-03-12T05:25:27.730Z,6.20
2019-03-12T05:26:27.793Z,8.10
2019-03-12T05:27:27.684Z,7.30
2019-03-12T05:28:27.676Z,6.00
2019-03-12T05:29:27.664Z,5.20
2019-03-12T05:30:27.649Z,8.40
2019-03-12T05:31:27.669Z,9.60
2019-03-12T05:32:27.628Z,7.40
2019-03-12T05:33:27.619Z,6.50
2019-03-12T05:34:27.604Z,7.00
2019-03-12T05:35:27.601Z,5.60
2019-03-12T05:36:27.605Z,6.90
2019-03-12T05:37:27.575Z,7.60
2019-03-12T05:38:27.561Z,8.50
2019-03-12T05:39:27.558Z,7.10
2019-03-12T05:40:27.538Z,10.10
2019-03-12T05:41:27.558Z,8.40
2019-03-12T05:42:27.517Z,11.40
2019-03-12T05:43:27.512Z,7.40
2019-03-12T05:44:27.495Z,9.20
2019-03-12T05:45:27.487Z,9.10
2019-03-12T05:46:27.499Z,9.90
2019-03-12T05:47:27.465Z,8.20
2019-03-12T05:48:27.453Z,9.60
2019-03-12T05:49:27.442Z,8.60
2019-03-12T05:50:27.427Z,6.70
2019-03-12T05:51:27.443Z,6.80
2019-03-12T05:52:27.409Z,5.80
2019-03-12T05:53:27.399Z,6.60
2019-03-12T05:54:27.386Z,7.30
2019-03-12T05:55:27.374Z,9.90
2019-03-12T05:56:27.389Z,6.30
2019-03-12T05:57:27.350Z,8.80
2019-03-12T05:58:27.341Z,6.20
2019-03-12T05:59:27.330Z,9.80
2019-03-12T06:00:27.322Z,6.30
2019-03-12T06:01:27.336Z,7.90
2019-03-12T06:02:27.300Z,9.40
2019-03-12T06:03:27.283Z,8.00
2019-03-12T06:04:27.276Z,7.90
2019-03-12T06:05:27.265Z,7.90
2019-03-12T06:06:27.279Z,8.20
2019-03-12T06:07:27.239Z,6.50
2019-03-12T06:08:27.230Z,6.60
2019-03-12T06:09:30.397Z,8.40
2019-03-12T06:10:27.209Z,6.20
2019-03-12T06:11:27.232Z,6.50
2019-03-12T06:12:27.188Z,6.00
2019-03-12T06:13:27.176Z,6.80
2019-03-12T06:14:27.166Z,5.10
2019-03-12T06:15:27.156Z,8.40
2019-03-12T06:16:27.142Z,5.00
2019-03-12T06:17:27.154Z,9.20
2019-03-12T06:18:27.120Z,6.10
2019-03-12T06:19:27.106Z,5.00
2019-03-12T06:20:27.096Z,6.60
2019-03-12T06:21:27.085Z,5.50
2019-03-12T06:22:27.100Z,6.00
2019-03-12T06:23:27.064Z,7.40
2019-03-12T06:24:27.058Z,5.10
2019-03-12T06:25:27.045Z,5.70
2019-03-12T06:26:27.098Z,6.30
2019-03-12T06:27:27.044Z,3.80
2019-03-12T06:28:27.014Z,3.70
2019-03-12T06:29:27.003Z,5.90
2019-03-12T06:30:26.987Z,6.00
2019-03-12T06:31:26.971Z,6.60
2019-03-12T06:32:27.007Z,6.50
2019-03-12T06:33:26.953Z,4.70
2019-03-12T06:34:26.940Z,7.10
2019-03-12T06:35:26.936Z,6.00
2019-03-12T06:36:26.920Z,5.50
2019-03-12T06:37:26.939Z,8.30
2019-03-12T06:38:26.895Z,7.60
2019-03-12T06:39:26.887Z,7.50
2019-03-12T06:40:26.873Z,5.70
2019-03-12T06:41:26.867Z,5.90
2019-03-12T06:42:26.880Z,5.80
2019-03-12T06:43:26.850Z,5.20
2019-03-12T06:44:26.834Z,6.80
2019-03-12T06:45:26.820Z,6.90
2019-03-12T06:46:26.811Z,5.40
2019-03-12T06:47:26.830Z,7.50
2019-03-12T06:48:26.788Z,5.10
2019-03-12T06:49:26.782Z,5.40
2019-03-12T06:50:26.767Z,5.20
2019-03-12T06:51:26.759Z,5.80
2019-03-12T06:52:26.766Z,5.60
2019-03-12T06:53:26.744Z,6.80
2019-03-12T06:54:26.721Z,6.20
2019-03-12T06:55:26.714Z,5.10
2019-03-12T06:56:26.707Z,5.60
2019-03-12T06:57:26.794Z,5.30
2019-03-12T06:58:26.685Z,6.70
2019-03-12T06:59:26.664Z,5.50
2019-03-12T07:00:26.660Z,6.90
2019-03-12T07:01:26.646Z,7.00
2019-03-12T07:02:26.658Z,5.50
2019-03-12T07:03:26.624Z,6.80
2019-03-12T07:04:26.622Z,6.90
2019-03-12T07:05:26.600Z,5.20
2019-03-12T07:06:26.598Z,6.40
2019-03-12T07:07:26.616Z,4.90
2019-03-12T07:08:26.568Z,8.30
2019-03-12T07:09:26.561Z,4.80
2019-03-12T07:10:26.545Z,8.00
2019-03-12T07:11:26.538Z,7.90
2019-03-12T07:12:26.520Z,6.00
2019-03-12T07:13:26.535Z,6.20
2019-03-12T07:14:26.542Z,6.80
2019-03-12T07:15:26.545Z,4.90
2019-03-12T07:16:26.482Z,6.30
2019-03-12T07:17:26.465Z,5.60
2019-03-12T07:18:26.489Z,10.80
2019-03-12T07:19:26.539Z,4.00
2019-03-12T07:20:26.493Z,6.10
2019-03-12T07:21:26.420Z,5.00
2019-03-12T07:22:26.411Z,6.40
2019-03-12T07:23:26.431Z,7.30
2019-03-12T07:24:26.390Z,5.40
2019-03-12T07:25:26.376Z,5.10
2019-03-12T07:26:26.367Z,4.50
2019-03-12T07:27:26.353Z,5.20
2019-03-12T07:28:26.369Z,7.30
2019-03-12T07:29:26.333Z,5.50
2019-03-12T07:30:26.322Z,5.80
2019-03-12T07:31:26.443Z,6.60
2019-03-12T07:32:26.304Z,7.40
2019-03-12T07:33:26.322Z,7.40
2019-03-12T07:34:36.220Z,7.30
2019-03-12T07:35:27.268Z,6.70
2019-03-12T07:36:26.255Z,5.40
2019-03-12T07:37:26.242Z,7.90
2019-03-12T07:38:26.267Z,6.00
2019-03-12T07:39:26.222Z,5.20
2019-03-12T07:40:26.221Z,5.50
2019-03-12T07:41:32.406Z,6.50
2019-03-12T07:42:27.190Z,4.60
2019-03-12T07:43:26.205Z,7.70
2019-03-12T07:44:26.169Z,7.40
2019-03-12T07:45:26.171Z,5.10
2019-03-12T07:46:26.149Z,5.70
2019-03-12T07:47:35.328Z,5.50
2019-03-12T07:48:27.319Z,6.30
2019-03-12T07:49:26.155Z,4.50
2019-03-12T07:50:26.102Z,7.10
2019-03-12T07:51:26.198Z,6.10
2019-03-12T07:52:26.076Z,6.30
2019-03-12T07:53:26.190Z,6.20
2019-03-12T07:54:26.058Z,6.80
2019-03-12T07:55:26.042Z,6.70
2019-03-12T07:56:26.138Z,7.40
2019-03-12T07:57:26.113Z,7.10
2019-03-12T07:58:35.821Z,9.30
2019-03-12T07:59:27.144Z,6.80
2019-03-12T08:00:25.988Z,8.50
2019-03-12T08:01:26.094Z,11.10
2019-03-12T08:02:25.966Z,10.10
2019-03-12T08:03:25.966Z,8.50
2019-03-12T08:04:25.986Z,7.90
2019-03-12T08:05:28.339Z,7.80
2019-03-12T08:06:26.015Z,7.40
2019-03-12T08:07:25.907Z,9.30
2019-03-12T08:08:25.953Z,8.20
2019-03-12T08:09:27.511Z,9.20
2019-03-12T08:10:25.991Z,8.70
2019-03-12T08:11:25.863Z,5.60
2019-03-12T08:12:25.853Z,6.70
2019-03-12T08:13:25.849Z,6.30
2019-03-12T08:14:27.030Z,8.40
2019-03-12T08:15:25.860Z,9.20
2019-03-12T08:16:25.864Z,6.40
2019-03-12T08:17:25.800Z,7.60
2019-03-12T08:18:25.785Z,7.60
2019-03-12T08:19:25.821Z,9.30
2019-03-12T08:20:25.767Z,7.30
2019-03-12T08:21:25.766Z,7.30
2019-03-12T08:22:25.744Z,6.90
2019-03-12T08:23:25.729Z,7.20
2019-03-12T08:24:25.747Z,7.20
2019-03-12T08:25:25.709Z,8.10
2019-03-12T08:26:25.698Z,8.70
2019-03-12T08:27:26.225Z,8.70
2019-03-12T08:28:25.705Z,9.90
2019-03-12T08:29:25.703Z,9.30
2019-03-12T08:30:25.652Z,7.40
2019-03-12T08:31:25.638Z,6.60
2019-03-12T08:32:25.641Z,7.30
2019-03-12T08:33:25.621Z,5.80
2019-03-12T08:34:25.638Z,12.00
2019-03-12T08:35:25.594Z,12.50
2019-03-12T08:36:25.583Z,11.10
2019-03-12T08:37:25.604Z,11.70
2019-03-12T08:38:25.566Z,10.10
2019-03-12T08:39:25.603Z,8.50
2019-03-12T08:40:25.541Z,7.50
2019-03-12T08:41:25.527Z,7.20
2019-03-12T08:42:25.528Z,6.80
2019-03-12T08:43:25.503Z,9.20
2019-03-12T08:44:26.489Z,6.80
2019-03-12T08:45:25.494Z,7.40
2019-03-12T08:46:25.469Z,7.30
2019-03-12T08:47:25.459Z,7.00
2019-03-12T08:48:25.447Z,7.50
2019-03-12T08:49:25.464Z,7.50
2019-03-12T08:50:25.424Z,8.50
2019-03-12T08:51:25.447Z,9.90
2019-03-12T08:52:25.409Z,8.80
2019-03-12T08:53:25.413Z,8.50
2019-03-12T08:54:25.436Z,10.20
2019-03-12T08:55:25.368Z,13.60
2019-03-12T08:56:25.364Z,10.50
2019-03-12T08:57:25.345Z,7.60
2019-03-12T08:58:25.399Z,8.20
2019-03-12T08:59:25.326Z,11.50
2019-03-12T09:00:25.341Z,10.20
2019-03-12T09:01:25.375Z,8.00
2019-03-12T09:02:25.307Z,8.50
2019-03-12T09:03:25.282Z,7.60
2019-03-12T09:04:25.341Z,8.50
2019-03-12T09:05:25.284Z,8.30
2019-03-12T09:06:25.249Z,7.80
2019-03-12T09:07:25.241Z,9.70
2019-03-12T09:08:25.273Z,8.70
2019-03-12T09:09:25.226Z,8.50
2019-03-12T09:10:25.227Z,6.90
2019-03-12T09:11:25.241Z,7.60
2019-03-12T09:12:25.260Z,7.90
2019-03-12T09:13:25.178Z,9.20
2019-03-12T09:14:25.159Z,9.00
2019-03-12T09:15:25.180Z,6.70
2019-03-12T09:16:25.161Z,8.40
2019-03-12T09:17:25.171Z,8.20
2019-03-12T09:18:25.124Z,9.30
2019-03-12T09:19:25.127Z,9.30
2019-03-12T09:20:25.122Z,7.10
2019-03-12T09:21:25.082Z,9.70
2019-03-12T09:22:25.097Z,9.50
2019-03-12T09:23:25.067Z,10.50
2019-03-12T09:24:25.050Z,8.80
2019-03-12T09:25:25.071Z,8.10
2019-03-12T09:26:25.044Z,8.30
2019-03-12T09:27:25.021Z,6.10
2019-03-12T09:28:25.021Z,9.00
2019-03-12T09:29:25.014Z,7.20
2019-03-12T09:30:25.007Z,8.00
2019-03-12T09:31:24.978Z,10.70
2019-03-12T09:32:24.970Z,6.90
2019-03-12T09:33:24.972Z,7.80
2019-03-12T09:34:24.958Z,8.40
2019-03-12T09:35:24.962Z,7.80
2019-03-12T09:36:24.934Z,7.10
2019-03-12T09:37:24.909Z,7.20
2019-03-12T09:38:24.907Z,7.80
2019-03-12T09:39:24.888Z,9.00
2019-03-12T09:40:24.963Z,9.30
2019-03-12T09:41:24.887Z,8.60
2019-03-12T09:42:24.881Z,8.60
2019-03-12T09:43:24.856Z,7.10
2019-03-12T09:44:24.845Z,7.40
2019-03-12T09:45:24.871Z,5.90
2019-03-12T09:46:24.829Z,7.50
2019-03-12T09:47:24.813Z,9.20
2019-03-12T09:48:24.800Z,8.00
2019-03-12T09:49:27.389Z,8.50
2019-03-12T09:50:24.818Z,7.20
2019-03-12T09:51:24.753Z,6.70
2019-03-12T09:52:24.801Z,8.70
2019-03-12T09:53:24.732Z,7.70
2019-03-12T09:54:24.728Z,8.00
2019-03-12T09:55:24.759Z,9.20
2019-03-12T09:56:24.775Z,7.30
2019-03-12T09:57:24.691Z,8.80
2019-03-12T09:58:24.678Z,8.70
2019-03-12T09:59:24.665Z,7.50
2019-03-12T10:00:24.656Z,8.30
2019-03-12T10:01:24.675Z,9.40
2019-03-12T10:02:24.630Z,10.50
2019-03-12T10:03:24.641Z,7.00
2019-03-12T10:04:24.748Z,7.30
2019-03-12T10:05:24.604Z,7.40
2019-03-12T10:06:24.610Z,6.30
2019-03-12T10:07:24.580Z,8.40
2019-03-12T10:08:24.581Z,7.50
2019-03-12T10:09:24.561Z,7.60
2019-03-12T10:10:24.543Z,8.80
2019-03-12T10:11:24.568Z,8.50
2019-03-12T10:12:24.527Z,8.30
2019-03-12T10:13:24.522Z,8.90
2019-03-12T10:14:24.499Z,7.50
2019-03-12T10:15:24.486Z,8.30
2019-03-12T10:16:24.548Z,7.70
2019-03-12T10:17:24.556Z,7.10
2019-03-12T10:18:24.452Z,6.20
2019-03-12T10:19:24.453Z,5.90
2019-03-12T10:20:24.438Z,8.30
2019-03-12T10:21:24.448Z,6.50
2019-03-12T10:22:24.408Z,7.50
2019-03-12T10:23:24.432Z,7.50
2019-03-12T10:24:24.387Z,7.90
2019-03-12T10:25:24.379Z,8.40
2019-03-12T10:26:24.392Z,6.20
2019-03-12T10:27:24.361Z,6.20
2019-03-12T10:28:24.367Z,7.20
2019-03-12T10:29:24.371Z,7.00
2019-03-12T10:30:24.343Z,6.60
2019-03-12T10:31:24.356Z,6.60
2019-03-12T10:32:24.319Z,6.20
2019-03-12T10:33:24.290Z,7.90
2019-03-12T10:34:29.532Z,7.20
2019-03-12T10:35:25.263Z,7.50
2019-03-12T10:36:24.497Z,6.20
2019-03-12T10:37:24.243Z,6.90
2019-03-12T10:38:24.229Z,7.60
2019-03-12T10:39:24.246Z,7.50
2019-03-12T10:40:24.207Z,6.00
2019-03-12T10:41:24.233Z,7.20
2019-03-12T10:42:24.191Z,7.70
2019-03-12T10:43:24.184Z,7.30
2019-03-12T10:44:24.165Z,7.20
2019-03-12T10:45:24.165Z,6.10
2019-03-12T10:46:24.151Z,7.60
2019-03-12T10:47:24.161Z,7.20
2019-03-12T10:48:24.131Z,7.80
2019-03-12T10:49:36.639Z,7.10
2019-03-12T10:50:25.132Z,5.20
2019-03-12T10:51:24.087Z,7.60
2019-03-12T10:52:24.105Z,8.20
2019-03-12T10:53:24.067Z,3.90
2019-03-12T10:54:24.055Z,8.40
2019-03-12T10:55:24.125Z,4.50
2019-03-12T10:56:24.034Z,7.50
2019-03-12T10:57:24.040Z,6.30
2019-03-12T10:58:24.111Z,6.10
2019-03-12T10:59:23.991Z,6.10
2019-03-12T11:00:23.996Z,6.40
2019-03-12T11:01:23.977Z,5.70
2019-03-12T11:02:23.989Z,6.90
2019-03-12T11:03:23.952Z,5.60
2019-03-12T11:04:23.948Z,6.40
2019-03-12T11:05:23.973Z,6.90
2019-03-12T11:06:23.946Z,9.60
2019-03-12T11:07:23.951Z,7.10
2019-03-12T11:08:23.907Z,6.30
2019-03-12T11:09:23.889Z,6.80
2019-03-12T11:10:23.882Z,7.70
2019-03-12T11:11:23.861Z,8.20
2019-03-12T11:12:23.880Z,7.20
2019-03-12T11:13:23.845Z,5.90
2019-03-12T11:14:23.837Z,6.80
2019-03-12T11:15:23.826Z,6.50
2019-03-12T11:16:23.823Z,6.20
2019-03-12T11:17:23.838Z,5.20
2019-03-12T11:18:23.785Z,5.40
2019-03-12T11:19:23.773Z,6.40
2019-03-12T11:20:23.766Z,5.90
2019-03-12T11:21:23.753Z,6.40
2019-03-12T11:22:23.742Z,8.10
2019-03-12T11:23:23.750Z,6.60
2019-03-12T11:24:23.718Z,5.60
2019-03-12T11:25:27.618Z,5.50
2019-03-12T11:26:23.694Z,7.80
2019-03-12T11:27:23.694Z,7.70
2019-03-12T11:28:26.608Z,6.50
2019-03-12T11:29:23.669Z,6.30
2019-03-12T11:30:23.649Z,7.50
2019-03-12T11:31:23.651Z,5.40
2019-03-12T11:32:23.654Z,7.00
2019-03-12T11:33:23.639Z,5.00
2019-03-12T11:34:23.609Z,5.70
2019-03-12T11:35:23.593Z,6.30
2019-03-12T11:36:23.614Z,5.20
2019-03-12T11:37:23.578Z,5.70
2019-03-12T11:38:23.725Z,7.00
2019-03-12T11:39:23.564Z,6.10
2019-03-12T11:40:23.596Z,6.00
2019-03-12T11:41:23.537Z,5.70
2019-03-12T11:42:23.544Z,6.60
2019-03-12T11:43:23.579Z,7.40
2019-03-12T11:44:23.505Z,5.30
2019-03-12T11:45:35.662Z,6.00
2019-03-12T11:46:24.509Z,6.40
2019-03-12T11:47:23.460Z,5.30
2019-03-12T11:48:23.493Z,4.30
2019-03-12T11:49:23.448Z,3.60
2019-03-12T11:50:23.461Z,6.20
2019-03-12T11:51:23.425Z,5.50
2019-03-12T11:52:23.471Z,4.70
2019-03-12T11:53:23.419Z,5.50
2019-03-12T11:54:23.382Z,5.30
2019-03-12T11:55:23.408Z,5.20
2019-03-12T11:56:23.719Z,6.50
2019-03-12T11:57:23.374Z,5.10
2019-03-12T11:58:23.382Z,6.10
2019-03-12T11:59:23.334Z,5.40
2019-03-12T12:00:23.336Z,5.30
2019-03-12T12:01:23.319Z,4.20
2019-03-12T12:02:23.295Z,7.40
2019-03-12T12:03:23.384Z,5.70
2019-03-12T12:04:23.273Z,5.90
2019-03-12T12:05:23.260Z,9.40
2019-03-12T12:06:23.250Z,4.20
2019-03-12T12:07:23.269Z,8.30
2019-03-12T12:08:23.224Z,5.20
2019-03-12T12:09:23.307Z,3.50
2019-03-12T12:10:23.216Z,7.40
2019-03-12T12:11:23.192Z,4.90
2019-03-12T12:12:23.198Z,6.60
2019-03-12T12:13:23.173Z,6.50
2019-03-12T12:14:23.196Z,5.60
2019-03-12T12:15:23.147Z,5.80
2019-03-12T12:16:23.136Z,7.40
2019-03-12T12:17:23.126Z,4.50
2019-03-12T12:18:23.113Z,7.80
2019-03-12T12:19:23.127Z,5.40
2019-03-12T12:20:29.642Z,5.40
2019-03-12T12:21:24.080Z,7.70
2019-03-12T12:22:23.079Z,7.70
2019-03-12T12:23:23.104Z,6.50
2019-03-12T12:24:26.316Z,4.40
2019-03-12T12:25:23.062Z,4.80
2019-03-12T12:26:23.058Z,8.20
2019-03-12T12:27:23.073Z,5.40
2019-03-12T12:28:22.999Z,6.10
2019-03-12T12:29:23.013Z,5.60
2019-03-12T12:30:23.077Z,5.70
2019-03-12T12:31:22.964Z,6.10
2019-03-12T12:32:22.954Z,5.80
2019-03-12T12:33:22.952Z,4.80
2019-03-12T12:34:22.959Z,3.80
2019-03-12T12:35:22.923Z,7.00
2019-03-12T12:36:22.910Z,5.30
2019-03-12T12:37:22.910Z,4.90
2019-03-12T12:38:22.886Z,5.90
2019-03-12T12:39:22.906Z,6.50
2019-03-12T12:40:22.869Z,7.20
2019-03-12T12:41:22.856Z,6.00
2019-03-12T12:42:22.852Z,6.70
2019-03-12T12:43:22.837Z,5.90
2019-03-12T12:44:22.841Z,6.20
2019-03-12T12:45:22.808Z,5.20
2019-03-12T12:46:22.802Z,7.00
2019-03-12T12:47:22.784Z,6.80
2019-03-12T12:48:22.778Z,6.60
2019-03-12T12:49:22.790Z,7.00
2019-03-12T12:50:22.752Z,5.80
2019-03-12T12:51:22.753Z,6.50
2019-03-12T12:52:22.730Z,5.20
2019-03-12T12:53:22.718Z,7.20
2019-03-12T12:54:22.741Z,4.60
2019-03-12T12:55:22.701Z,8.00
2019-03-12T12:56:22.686Z,8.00
2019-03-12T12:57:22.684Z,6.10
2019-03-12T12:58:22.674Z,6.80
2019-03-12T12:59:22.653Z,4.70
2019-03-12T13:00:22.684Z,6.30
2019-03-12T13:01:22.630Z,5.30
2019-03-12T13:02:22.622Z,4.70
2019-03-12T13:03:22.609Z,5.30
2019-03-12T13:04:22.605Z,5.30
2019-03-12T13:05:22.621Z,5.40
2019-03-12T13:06:22.572Z,5.00
2019-03-12T13:07:22.602Z,6.10
2019-03-12T13:08:22.558Z,5.30
2019-03-12T13:09:22.540Z,5.50